Gogama, Canada
Current Conditions -  °F | °C
As of 1:00 PM on Saturday 25 Oct 2014 (Local Time) from CYTS Reporting Station
Light Rain Light Rain  
Wind Chill: 43°   Ceiling: 2300
Heat Index: 48°   Visibility: 10mi
Dew Point: 43°   Wind: 13mph
Humidity: 82%   Direction: 270°W
Pressure: 29.38"   Gusts: 24mph
Location:  47.67°N, 81.72°W
Report Text: CYTS 251700Z 27011G21KT 10SM -RA OVC023 09/06 A2938 RMK SC8 SLP957 DENSITY ALT 1100FT
Loading
Personal Weather Stations






























Interactive Weather Map
Tropical Storm Tracking
New forecast layout! Learn more

10-Day Weather Forecast

Advertisements
Track Severe Weather on mobile